createdAt,value
2019-04-02T00:00:35.401Z,28.60
2019-04-02T00:03:09.198Z,29.00
2019-04-02T00:05:43.273Z,27.13
2019-04-02T00:08:16.988Z,26.73
2019-04-02T00:10:52.077Z,19.60
2019-04-02T00:13:25.593Z,21.93
2019-04-02T00:15:59.329Z,19.63
2019-04-02T00:18:32.986Z,23.92
2019-04-02T00:21:06.641Z,21.57
2019-04-02T00:23:40.485Z,19.70
2019-04-02T00:26:14.781Z,17.37
2019-04-02T00:28:48.654Z,16.43
2019-04-02T00:31:22.309Z,16.83
2019-04-02T00:33:56.090Z,21.17
2019-04-02T00:36:29.738Z,20.73
2019-04-02T00:39:04.437Z,23.17
2019-04-02T00:41:38.002Z,14.67
2019-04-02T00:44:13.631Z,18.77
2019-04-02T00:46:47.007Z,21.27
2019-04-02T00:49:21.418Z,18.23
2019-04-02T00:51:54.882Z,24.63
2019-04-02T00:54:28.677Z,17.47
2019-04-02T00:57:02.328Z,18.40
2019-04-02T00:59:37.321Z,17.00
2019-04-02T01:02:10.968Z,19.40
2019-04-02T01:05:24.679Z,21.50
2019-04-02T01:08:40.058Z,19.15
2019-04-02T01:11:15.370Z,16.17
2019-04-02T01:13:49.262Z,16.20
2019-04-02T01:16:23.112Z,18.67
2019-04-02T01:18:56.677Z,15.50
2019-04-02T01:21:30.454Z,18.10
2019-04-02T01:24:03.777Z,20.37
2019-04-02T01:26:37.349Z,20.40
2019-04-02T01:29:19.499Z,19.93
2019-04-02T01:31:53.217Z,21.47
2019-04-02T01:34:26.983Z,16.97
2019-04-02T01:37:00.804Z,21.40
2019-04-02T01:39:34.925Z,18.30
2019-04-02T01:42:08.382Z,14.90
2019-04-02T01:45:23.652Z,17.27
2019-04-02T01:48:47.952Z,14.93
2019-04-02T01:54:36.263Z,7.40
2019-04-02T01:57:09.892Z,9.37
2019-04-02T01:59:45.395Z,13.50
2019-04-02T02:02:19.259Z,7.97
2019-04-02T02:04:53.341Z,9.50
2019-04-02T02:07:26.841Z,9.80
2019-04-02T02:10:00.701Z,11.30
2019-04-02T02:12:34.411Z,13.23
2019-04-02T02:15:09.139Z,13.23
2019-04-02T02:17:44.110Z,35.27
2019-04-02T02:20:17.998Z,11.87
2019-04-02T02:22:51.652Z,16.10
2019-04-02T02:25:25.694Z,15.73
2019-04-02T02:27:59.402Z,14.00
2019-04-02T02:30:33.152Z,13.10
2019-04-02T02:33:07.164Z,9.07
2019-04-02T02:35:41.360Z,6.73
2019-04-02T02:38:14.821Z,9.08
2019-04-02T02:41:42.346Z,10.40
2019-04-02T02:44:15.614Z,10.23
2019-04-02T02:46:49.291Z,11.77
2019-04-02T02:49:22.917Z,10.87
2019-04-02T02:51:56.746Z,13.10
2019-04-02T02:54:30.418Z,15.47
2019-04-02T02:57:04.032Z,12.43
2019-04-02T02:59:39.877Z,15.97
2019-04-02T03:02:13.528Z,14.67
2019-04-02T03:04:48.320Z,16.20
2019-04-02T03:07:23.225Z,17.03
2019-04-02T03:09:58.649Z,14.33
2019-04-02T03:12:32.187Z,7.07
2019-04-02T03:15:09.023Z,12.87
2019-04-02T03:17:42.641Z,13.57
2019-04-02T03:20:16.420Z,12.57
2019-04-02T03:22:50.128Z,13.80
2019-04-02T03:25:23.533Z,10.40
2019-04-02T03:27:57.199Z,11.43
2019-04-02T03:30:33.103Z,13.50
2019-04-02T03:33:08.252Z,11.90
2019-04-02T03:35:41.956Z,9.67
2019-04-02T03:38:16.196Z,11.97
2019-04-02T03:40:49.849Z,11.95
2019-04-02T03:47:39.542Z,11.60
2019-04-02T03:50:14.986Z,9.50
2019-04-02T03:52:48.335Z,7.33
2019-04-02T03:55:23.458Z,15.53
2019-04-02T03:57:57.310Z,9.23
2019-04-02T04:00:32.433Z,9.43
2019-04-02T04:03:06.500Z,12.30
2019-04-02T04:05:40.554Z,14.60
2019-04-02T04:08:14.361Z,10.70
2019-04-02T04:10:53.993Z,10.03
2019-04-02T04:13:27.858Z,20.20
2019-04-02T04:16:01.380Z,11.50
2019-04-02T04:18:34.912Z,10.63
2019-04-02T04:21:08.610Z,10.07
2019-04-02T04:24:06.950Z,16.00
2019-04-02T04:30:11.551Z,15.87
2019-04-02T04:34:23.096Z,16.32
2019-04-02T04:37:00.692Z,10.00
2019-04-02T04:39:21.171Z,12.35
2019-04-02T04:41:55.826Z,10.07
2019-04-02T04:44:31.652Z,14.00
2019-04-02T04:47:05.335Z,13.10
2019-04-02T04:49:39.046Z,10.10
2019-04-02T04:52:14.024Z,13.33
2019-04-02T04:54:47.554Z,11.38
2019-04-02T04:57:22.220Z,11.90
2019-04-02T04:59:55.882Z,15.17
2019-04-02T05:03:19.928Z,12.63
2019-04-02T05:09:25.923Z,12.60
2019-04-02T05:12:00.903Z,13.80
2019-04-02T05:14:37.081Z,12.63
2019-04-02T05:17:13.632Z,12.20
2019-04-02T05:19:50.950Z,11.83
2019-04-02T05:22:23.687Z,19.00
2019-04-02T05:24:57.503Z,13.88
2019-04-02T05:27:31.461Z,15.33
2019-04-02T05:30:06.202Z,12.37
2019-04-02T05:32:40.410Z,15.70
2019-04-02T05:35:14.495Z,15.97
2019-04-02T05:37:50.246Z,12.57
2019-04-02T05:40:23.436Z,13.83
2019-04-02T05:42:57.638Z,16.33
2019-04-02T05:45:31.201Z,19.27
2019-04-02T05:48:04.830Z,12.10
2019-04-02T05:50:38.378Z,13.87
2019-04-02T05:53:13.769Z,10.87
2019-04-02T05:55:53.071Z,10.98
2019-04-02T05:58:26.651Z,14.13
2019-04-02T06:01:02.460Z,9.30
2019-04-02T06:03:36.389Z,14.63
2019-04-02T06:06:09.778Z,13.93
2019-04-02T06:08:43.762Z,11.80
2019-04-02T06:11:17.779Z,12.25
2019-04-02T06:13:51.363Z,15.00
2019-04-02T06:16:24.733Z,13.00
2019-04-02T06:18:58.081Z,19.23
2019-04-02T06:21:31.622Z,17.70
2019-04-02T06:24:05.499Z,14.33
2019-04-02T06:26:39.250Z,14.40
2019-04-02T06:29:19.285Z,13.73
2019-04-02T06:31:54.219Z,14.33
2019-04-02T06:34:28.048Z,15.60
2019-04-02T06:37:02.929Z,11.37
2019-04-02T06:39:36.637Z,15.90
2019-04-02T06:42:13.211Z,9.87
2019-04-02T06:44:46.821Z,12.13
2019-04-02T06:47:23.055Z,13.35
2019-04-02T06:49:56.000Z,14.83
2019-04-02T06:52:29.819Z,9.13
2019-04-02T06:55:05.133Z,16.37
2019-04-02T06:57:41.327Z,10.63
2019-04-02T07:00:14.685Z,10.37
2019-04-02T07:02:48.902Z,14.03
2019-04-02T07:05:22.852Z,11.70
2019-04-02T07:07:58.385Z,10.30
2019-04-02T07:10:43.152Z,12.50
2019-04-02T07:13:07.029Z,11.63
2019-04-02T07:15:40.871Z,10.87
2019-04-02T07:18:14.625Z,17.47
2019-04-02T07:20:48.247Z,14.13
2019-04-02T07:23:22.052Z,12.90
2019-04-02T07:25:57.574Z,12.20
2019-04-02T07:28:31.552Z,11.50
2019-04-02T07:31:06.277Z,16.87
2019-04-02T07:33:43.383Z,23.77
2019-04-02T07:36:17.134Z,13.10
2019-04-02T07:38:52.091Z,12.90
2019-04-02T07:41:26.544Z,16.40
2019-04-02T07:44:00.412Z,22.83
2019-04-02T07:46:34.222Z,18.87
2019-04-02T07:49:08.040Z,18.03
2019-04-02T07:51:42.634Z,11.05
2019-04-02T07:54:16.650Z,13.67
2019-04-02T07:56:50.711Z,15.35
2019-04-02T07:59:26.823Z,14.95
2019-04-02T08:02:01.463Z,13.90
2019-04-02T08:04:35.709Z,19.67
2019-04-02T08:07:09.479Z,16.97
2019-04-02T08:09:44.221Z,13.00
2019-04-02T08:12:18.111Z,12.55
2019-04-02T08:14:52.988Z,12.43
2019-04-02T08:17:27.450Z,20.70
2019-04-02T08:20:01.663Z,16.73
2019-04-02T08:22:35.786Z,12.63
2019-04-02T08:25:14.914Z,18.70
2019-04-02T08:27:49.325Z,15.45
2019-04-02T08:30:23.987Z,19.07
2019-04-02T08:32:58.321Z,21.90
2019-04-02T08:35:33.417Z,15.47
2019-04-02T08:38:08.277Z,10.47
2019-04-02T08:40:43.245Z,12.03
2019-04-02T08:43:18.339Z,19.13
2019-04-02T08:45:52.588Z,13.57
2019-04-02T08:48:27.007Z,27.77
2019-04-02T08:51:00.881Z,14.57
2019-04-02T08:53:35.430Z,10.10
2019-04-02T08:56:09.623Z,11.33
2019-04-02T08:58:51.564Z,11.13
2019-04-02T09:01:20.149Z,10.28
2019-04-02T09:03:54.616Z,13.38
2019-04-02T09:06:28.357Z,10.25
2019-04-02T09:09:02.462Z,19.50
2019-04-02T09:11:38.542Z,19.33
2019-04-02T09:14:13.321Z,11.08
2019-04-02T09:16:50.912Z,17.03
2019-04-02T09:19:26.516Z,15.60
2019-04-02T09:22:00.638Z,15.17
2019-04-02T09:24:34.938Z,11.03
2019-04-02T09:27:09.024Z,12.57
2019-04-02T09:29:49.697Z,12.88
2019-04-02T09:32:35.505Z,14.03
2019-04-02T09:34:59.312Z,12.30
2019-04-02T09:37:33.399Z,10.33
2019-04-02T09:40:09.186Z,16.33
2019-04-02T09:42:44.575Z,17.67
2019-04-02T09:45:19.760Z,19.80
2019-04-02T09:47:54.404Z,14.30
2019-04-02T09:50:28.837Z,16.03
2019-04-02T09:53:03.056Z,14.67
2019-04-02T09:55:48.096Z,20.10
2019-04-02T09:58:14.050Z,17.77
2019-04-02T10:00:48.978Z,13.30
2019-04-02T10:03:24.162Z,16.32
2019-04-02T10:06:00.945Z,21.07
2019-04-02T10:08:35.666Z,23.75
2019-04-02T10:11:10.639Z,19.50
2019-04-02T10:13:45.164Z,23.93
2019-04-02T10:16:19.925Z,23.17
2019-04-02T10:19:17.180Z,22.27
2019-04-02T10:21:30.870Z,18.80
2019-04-02T10:24:05.956Z,22.82
2019-04-02T10:26:39.754Z,21.20
2019-04-02T10:29:14.502Z,21.60
2019-04-02T10:31:48.982Z,20.60
2019-04-02T10:34:23.142Z,24.23
2019-04-02T10:37:00.096Z,27.27
2019-04-02T10:39:36.880Z,28.80
2019-04-02T10:42:11.896Z,22.30
2019-04-02T10:44:50.020Z,26.60
2019-04-02T10:47:24.505Z,22.58
2019-04-02T10:49:58.775Z,22.30
2019-04-02T10:52:33.957Z,24.83
2019-04-02T10:55:09.469Z,33.60
2019-04-02T10:57:43.669Z,29.40
2019-04-02T11:00:20.087Z,30.30
2019-04-02T11:02:53.683Z,27.42
2019-04-02T11:05:29.386Z,43.10
2019-04-02T11:08:03.703Z,34.08
2019-04-02T11:10:37.917Z,31.00
2019-04-02T11:13:12.809Z,30.00
2019-04-02T11:15:52.315Z,24.50
2019-04-02T11:18:27.035Z,28.67
2019-04-02T11:21:07.862Z,27.33
2019-04-02T11:23:38.620Z,25.33
2019-04-02T11:26:13.641Z,29.87
2019-04-02T11:28:48.987Z,27.67
2019-04-02T11:31:26.021Z,30.43
2019-04-02T11:34:01.326Z,29.05
2019-04-02T11:36:36.995Z,32.50
2019-04-02T11:39:15.557Z,38.97
2019-04-02T11:41:52.522Z,35.87
2019-04-02T11:44:28.564Z,36.70
2019-04-02T11:47:03.481Z,33.90
2019-04-02T11:49:39.526Z,33.20
2019-04-02T11:52:14.115Z,37.23
2019-04-02T11:54:49.528Z,29.60
2019-04-02T11:57:27.677Z,44.83
2019-04-02T12:00:03.557Z,36.70
2019-04-02T12:02:40.033Z,36.03
2019-04-02T12:05:21.157Z,36.53
2019-04-02T12:08:14.460Z,46.77
2019-04-02T12:10:40.269Z,35.87
2019-04-02T12:13:14.171Z,39.07
2019-04-02T12:15:50.386Z,41.27
2019-04-02T12:18:24.285Z,45.70
2019-04-02T12:21:00.749Z,38.27
2019-04-02T12:23:35.118Z,43.23
2019-04-02T12:26:09.595Z,38.77
2019-04-02T12:28:44.227Z,38.43
2019-04-02T12:31:19.506Z,39.17
2019-04-02T12:33:54.127Z,40.90
2019-04-02T12:36:30.181Z,38.20
2019-04-02T12:39:06.035Z,37.27
2019-04-02T12:41:43.212Z,40.07
2019-04-02T12:44:17.784Z,38.70
2019-04-02T12:46:52.798Z,37.20
2019-04-02T12:49:29.793Z,40.27
2019-04-02T12:52:09.574Z,35.07
2019-04-02T12:54:48.807Z,39.90
2019-04-02T12:57:26.226Z,37.57
2019-04-02T13:00:01.599Z,47.67
2019-04-02T13:02:42.772Z,44.77
2019-04-02T13:05:17.707Z,52.50
2019-04-02T13:07:52.105Z,48.60
2019-04-02T13:10:26.664Z,45.70
2019-04-02T13:13:01.894Z,41.80
2019-04-02T13:15:36.285Z,42.10
2019-04-02T13:18:10.910Z,50.85
2019-04-02T13:20:45.601Z,52.00
2019-04-02T13:23:20.542Z,40.90
2019-04-02T13:25:55.369Z,66.10
2019-04-02T13:28:30.507Z,64.85
2019-04-02T13:31:08.135Z,73.93
2019-04-02T13:33:47.901Z,66.50
2019-04-02T13:36:24.282Z,74.63
2019-04-02T13:38:59.300Z,80.13
2019-04-02T13:41:33.885Z,59.67
2019-04-02T13:44:08.617Z,58.37
2019-04-02T13:46:43.388Z,73.23
2019-04-02T13:49:17.714Z,81.60
2019-04-02T13:52:00.273Z,78.00
2019-04-02T13:54:34.969Z,78.47
2019-04-02T13:57:08.302Z,71.87
2019-04-02T13:59:43.489Z,76.47
2019-04-02T14:02:18.493Z,69.07
2019-04-02T14:04:53.587Z,73.77
2019-04-02T14:07:28.248Z,66.27
2019-04-02T14:10:02.745Z,83.03
2019-04-02T14:12:38.371Z,81.37
2019-04-02T14:15:13.240Z,92.23
2019-04-02T14:17:47.227Z,81.80
2019-04-02T14:20:34.166Z,77.53
2019-04-02T14:23:27.636Z,73.03
2019-04-02T14:26:03.182Z,73.37
2019-04-02T14:28:37.415Z,79.03
2019-04-02T14:31:11.759Z,70.00
2019-04-02T14:33:47.380Z,64.53
2019-04-02T14:36:22.651Z,75.20
2019-04-02T14:38:59.177Z,68.40
2019-04-02T14:41:33.610Z,72.43
2019-04-02T14:44:07.470Z,66.70
2019-04-02T14:46:41.474Z,80.65
2019-04-02T14:49:15.340Z,65.10
2019-04-02T14:51:49.248Z,83.83
2019-04-02T14:54:24.618Z,66.43
2019-04-02T14:56:58.483Z,74.67
2019-04-02T14:59:32.728Z,71.10
2019-04-02T15:02:06.401Z,83.77
2019-04-02T15:04:40.156Z,85.03
2019-04-02T15:07:14.416Z,77.82
2019-04-02T15:09:50.405Z,74.07
2019-04-02T15:12:24.437Z,96.90
2019-04-02T15:15:01.294Z,101.80
2019-04-02T15:17:36.042Z,101.92
2019-04-02T15:20:10.655Z,97.88
2019-04-02T15:22:44.079Z,97.77
2019-04-02T15:25:18.183Z,90.10
2019-04-02T15:27:52.105Z,105.67
2019-04-02T15:30:25.978Z,122.23
2019-04-02T15:32:59.615Z,116.07
2019-04-02T15:35:34.977Z,112.37
2019-04-02T15:38:07.926Z,112.77
2019-04-02T15:40:41.536Z,112.22
2019-04-02T15:43:16.945Z,103.43
2019-04-02T15:45:50.587Z,114.07
2019-04-02T15:48:27.521Z,88.77
2019-04-02T15:51:00.549Z,85.77
2019-04-02T15:53:34.625Z,103.30
2019-04-02T15:56:08.499Z,92.40
2019-04-02T15:58:41.986Z,96.53
2019-04-02T16:01:16.084Z,91.40
2019-04-02T16:03:49.671Z,93.97
2019-04-02T16:06:24.487Z,98.33
2019-04-02T16:08:58.141Z,103.60
2019-04-02T16:11:31.558Z,89.20
2019-04-02T16:14:04.888Z,90.57
2019-04-02T16:16:39.442Z,95.80
2019-04-02T16:19:14.907Z,96.90
2019-04-02T16:21:48.402Z,90.17
2019-04-02T16:24:22.140Z,110.80
2019-04-02T16:26:55.605Z,96.33
2019-04-02T16:29:29.361Z,81.03
2019-04-02T16:32:02.864Z,87.27
2019-04-02T16:34:38.923Z,102.97
2019-04-02T16:37:13.735Z,105.30
2019-04-02T16:39:45.908Z,93.33
2019-04-02T16:42:21.909Z,93.97
2019-04-02T16:44:56.024Z,85.77
2019-04-02T16:47:29.749Z,93.07
2019-04-02T16:50:03.259Z,89.70
2019-04-02T16:52:38.134Z,93.73
2019-04-02T16:55:13.378Z,87.50
2019-04-02T16:57:47.165Z,86.00
2019-04-02T17:00:22.097Z,85.13
2019-04-02T17:02:55.835Z,70.67
2019-04-02T17:05:31.959Z,78.87
2019-04-02T17:08:06.018Z,82.50
2019-04-02T17:10:39.674Z,75.93
2019-04-02T17:13:14.694Z,70.80
2019-04-02T17:15:48.247Z,74.70
2019-04-02T17:18:21.953Z,80.70
2019-04-02T17:20:56.947Z,77.80
2019-04-02T17:23:30.627Z,82.17
2019-04-02T17:26:05.170Z,85.32
2019-04-02T17:28:38.445Z,66.90
2019-04-02T17:31:11.971Z,65.20
2019-04-02T17:33:45.665Z,66.93
2019-04-02T17:36:19.092Z,67.50
2019-04-02T17:38:52.750Z,56.60
2019-04-02T17:41:26.483Z,55.57
2019-04-02T17:44:00.125Z,63.43
2019-04-02T17:46:33.797Z,62.07
2019-04-02T17:49:07.513Z,63.43
2019-04-02T17:51:41.044Z,54.40
2019-04-02T17:54:14.717Z,54.80
2019-04-02T17:56:48.449Z,50.90
2019-04-02T17:59:23.378Z,52.17
2019-04-02T18:01:58.649Z,55.70
2019-04-02T18:04:42.281Z,56.37
2019-04-02T18:07:06.820Z,53.97
2019-04-02T18:09:40.563Z,55.40
2019-04-02T18:12:14.283Z,56.73
2019-04-02T18:14:48.082Z,55.53
2019-04-02T18:17:21.624Z,51.43
2019-04-02T18:19:55.139Z,48.80
2019-04-02T18:22:28.733Z,52.27
2019-04-02T18:25:02.450Z,51.73
2019-04-02T18:27:35.931Z,50.87
2019-04-02T18:30:10.692Z,41.90
2019-04-02T18:32:45.658Z,42.47
2019-04-02T18:35:38.722Z,53.83
2019-04-02T18:38:12.511Z,39.57
2019-04-02T18:40:46.258Z,50.90
2019-04-02T18:43:19.974Z,47.43
2019-04-02T18:45:53.555Z,44.10
2019-04-02T18:48:27.300Z,48.07
2019-04-02T18:51:01.092Z,51.63
2019-04-02T18:53:34.588Z,45.80
2019-04-02T18:56:10.798Z,45.92
2019-04-02T18:58:43.681Z,54.07
2019-04-02T19:01:18.646Z,53.37
2019-04-02T19:03:51.986Z,44.20
2019-04-02T19:06:25.575Z,50.28
2019-04-02T19:08:59.981Z,44.07
2019-04-02T19:11:34.200Z,40.97
2019-04-02T19:14:07.750Z,46.60
2019-04-02T19:16:42.907Z,41.57
2019-04-02T19:19:16.661Z,40.63
2019-04-02T19:21:50.306Z,45.17
2019-04-02T19:24:25.324Z,44.27
2019-04-02T19:26:59.090Z,46.37
2019-04-02T19:29:32.874Z,37.00
2019-04-02T19:32:06.351Z,41.90
2019-04-02T19:34:40.719Z,49.37
2019-04-02T19:37:15.082Z,42.07
2019-04-02T19:39:49.821Z,39.15
2019-04-02T19:42:23.961Z,38.80
2019-04-02T19:44:57.676Z,35.73
2019-04-02T19:47:31.337Z,44.58
2019-04-02T19:50:05.371Z,33.07
2019-04-02T19:52:39.315Z,31.80
2019-04-02T19:55:13.792Z,24.33
2019-04-02T19:57:49.021Z,27.17
2019-04-02T20:00:22.230Z,26.23
2019-04-02T20:02:56.006Z,25.07
2019-04-02T20:05:32.185Z,27.87
2019-04-02T20:08:05.038Z,31.60
2019-04-02T20:10:41.157Z,26.90
2019-04-02T20:13:14.644Z,23.77
2019-04-02T20:15:48.318Z,30.70
2019-04-02T20:18:21.947Z,22.03
2019-04-02T20:20:55.658Z,21.25
2019-04-02T20:23:30.636Z,26.40
2019-04-02T20:26:05.631Z,26.67
2019-04-02T20:28:39.630Z,21.48
2019-04-02T20:31:13.268Z,27.73
2019-04-02T20:33:46.997Z,26.23
2019-04-02T20:36:24.527Z,20.50
2019-04-02T20:38:58.710Z,22.10
2019-04-02T20:41:31.553Z,24.70
2019-04-02T20:44:05.253Z,23.37
2019-04-02T20:46:39.711Z,18.68
2019-04-02T20:49:13.148Z,20.27
2019-04-02T20:51:46.849Z,24.73
2019-04-02T20:54:21.927Z,28.37
2019-04-02T20:56:55.395Z,20.10
2019-04-02T20:59:29.179Z,22.55
2019-04-02T21:02:02.861Z,19.13
2019-04-02T21:04:36.670Z,20.12
2019-04-02T21:07:10.035Z,22.40
2019-04-02T21:09:43.837Z,21.57
2019-04-02T21:12:17.372Z,25.77
2019-04-02T21:14:50.894Z,24.65
2019-04-02T21:17:25.899Z,27.40
2019-04-02T21:20:00.868Z,19.40
2019-04-02T21:22:34.299Z,20.73
2019-04-02T21:25:09.147Z,19.20
2019-04-02T21:27:42.973Z,26.23
2019-04-02T21:30:16.910Z,22.10
2019-04-02T21:32:50.724Z,24.27
2019-04-02T21:35:24.274Z,16.80
2019-04-02T21:38:00.927Z,26.57
2019-04-02T21:40:35.196Z,19.20
2019-04-02T21:45:53.725Z,21.57
2019-04-02T21:48:27.276Z,20.97
2019-04-02T21:51:01.091Z,19.93
2019-04-02T21:53:34.567Z,23.97
2019-04-02T21:56:08.312Z,18.50
2019-04-02T21:58:44.164Z,20.17
2019-04-02T22:01:38.473Z,24.47
2019-04-02T22:04:12.245Z,18.57
2019-04-02T22:06:46.395Z,22.47
2019-04-02T22:09:20.180Z,22.93
2019-04-02T22:11:53.553Z,19.17
2019-04-02T22:14:27.156Z,32.57
2019-04-02T22:17:00.606Z,22.87
2019-04-02T22:19:34.375Z,23.70
2019-04-02T22:22:09.399Z,26.73
2019-04-02T22:24:43.346Z,34.13
2019-04-02T22:27:19.357Z,28.15
2019-04-02T22:29:53.255Z,27.43
2019-04-02T22:32:26.816Z,23.00
2019-04-02T22:35:01.993Z,26.20
2019-04-02T22:37:35.838Z,34.00
2019-04-02T22:40:09.964Z,28.57
2019-04-02T22:42:43.443Z,30.33
2019-04-02T22:45:18.062Z,34.20
2019-04-02T22:47:54.156Z,32.97
2019-04-02T22:50:26.192Z,34.20
2019-04-02T22:52:59.977Z,32.50
2019-04-02T22:55:34.986Z,39.63
2019-04-02T22:58:09.693Z,34.33
2019-04-02T23:00:43.344Z,36.83
2019-04-02T23:03:18.203Z,27.20
2019-04-02T23:05:52.006Z,34.13
2019-04-02T23:08:25.719Z,34.20
2019-04-02T23:10:59.373Z,46.37
2019-04-02T23:17:03.212Z,33.23
2019-04-02T23:19:36.706Z,44.50
2019-04-02T23:22:10.325Z,41.47
2019-04-02T23:24:43.885Z,25.83
2019-04-02T23:27:18.972Z,34.63
2019-04-02T23:29:52.889Z,37.85
2019-04-02T23:32:28.461Z,30.70
2019-04-02T23:35:02.059Z,32.40
2019-04-02T23:37:35.539Z,30.83
2019-04-02T23:40:11.201Z,44.90
2019-04-02T23:42:44.872Z,32.27
2019-04-02T23:45:18.585Z,38.17
2019-04-02T23:47:52.381Z,38.33
2019-04-02T23:50:26.552Z,46.73
2019-04-02T23:53:01.559Z,44.03
2019-04-02T23:55:35.093Z,49.07
2019-04-02T23:58:08.769Z,47.53
